Time;durP1;ratioP1;P1;durP2;ratioP2;P2;SDS_P1;SDS_P2;PMS_P1;PMS_P2;Temp;Humidity;BMP_temperature;BMP_pressure;BME280_temperature;BME280_humidity;BME280_pressure;Samples;Min_cycle;Max_cycle;Signal;HPM_P1;HPM_P2
2022/12/28 00:00:02;;;;;;;12.05;5.85;;;;;;;0.01;100.00;96688.50;1018111;29;20028;-69
2022/12/28 00:00:33;;;;;;;10.14;4.88;;;;;;;0.03;100.00;96699.44;1017422;29;20027;-70
2022/12/28 00:01:07;;;;;;;12.80;5.93;;;;;;;0.08;100.00;96690.22;1018554;29;20584;-69
2022/12/28 00:01:38;;;;;;;11.36;5.64;;;;;;;0.08;100.00;96687.63;1015372;29;20561;-69
2022/12/28 00:02:08;;;;;;;13.23;5.60;;;;;;;0.05;100.00;96677.66;1014797;29;20032;-68
2022/12/28 00:02:39;;;;;;;8.93;5.20;;;;;;;0.10;100.00;96690.03;1021464;29;20031;-69
2022/12/28 00:03:09;;;;;;;9.07;5.32;;;;;;;0.12;100.00;96688.09;1017798;29;20028;-70
2022/12/28 00:03:40;;;;;;;9.02;5.10;;;;;;;0.09;100.00;96684.06;1018436;29;20035;-69
2022/12/28 00:04:12;;;;;;;12.05;5.18;;;;;;;0.06;100.00;96678.44;1011009;29;20017;-68
2022/12/28 00:04:42;;;;;;;9.08;5.50;;;;;;;0.13;100.00;96685.31;1014430;29;20520;-69
2022/12/28 00:05:13;;;;;;;9.65;5.13;;;;;;;0.13;100.00;96687.91;1018156;29;20036;-69
2022/12/28 00:05:43;;;;;;;7.75;5.25;;;;;;;0.14;100.00;96689.53;1017296;29;20043;-70
2022/12/28 00:06:14;;;;;;;7.05;4.75;;;;;;;0.14;100.00;96691.31;1022098;29;20023;-68
2022/12/28 00:06:46;;;;;;;9.95;5.03;;;;;;;0.14;100.00;96686.94;1021810;29;20062;-67
2022/12/28 00:07:16;;;;;;;8.44;5.26;;;;;;;0.14;100.00;96686.94;1017950;29;20031;-69
2022/12/28 00:07:47;;;;;;;9.07;5.28;;;;;;;0.14;100.00;96686.16;1013847;29;20039;-70
2022/12/28 00:08:17;;;;;;;8.60;5.50;;;;;;;0.14;100.00;96680.97;1018018;29;20032;-70
2022/12/28 00:08:48;;;;;;;8.75;5.13;;;;;;;0.13;100.00;96679.34;1014180;29;20039;-67
2022/12/28 00:09:18;;;;;;;9.93;4.85;;;;;;;0.12;100.00;96681.13;1010614;29;20072;-68
2022/12/28 00:09:49;;;;;;;11.77;5.40;;;;;;;0.13;100.00;96679.34;1009888;29;20063;-68
2022/12/28 00:10:19;;;;;;;9.57;5.07;;;;;;;0.11;100.00;96676.97;1010622;29;20036;-70
2022/12/28 00:10:49;;;;;;;10.65;5.53;;;;;;;0.12;100.00;96678.56;1017464;29;20027;-69
2022/12/28 00:11:21;;;;;;;8.85;5.32;;;;;;;0.14;100.00;96670.66;1022101;29;20027;-68
2022/12/28 00:11:51;;;;;;;8.06;4.84;;;;;;;0.13;100.00;96669.84;1018067;29;20035;-69
2022/12/28 00:12:21;;;;;;;13.35;5.55;;;;;;;0.14;100.00;96668.88;1020932;28;20069;-69
2022/12/28 00:12:52;;;;;;;9.85;5.60;;;;;;;0.13;100.00;96664.69;1025883;28;20030;-68
2022/12/28 00:13:22;;;;;;;7.43;5.05;;;;;;;0.14;100.00;96665.50;1026211;28;20030;-68
2022/12/28 00:13:53;;;;;;;8.77;4.97;;;;;;;0.07;100.00;96649.91;1024516;28;20022;-68
2022/12/28 00:14:24;;;;;;;7.90;5.15;;;;;;;0.14;100.00;96660.34;1022202;29;20023;-70
2022/12/28 00:14:54;;;;;;;9.85;5.30;;;;;;;0.13;100.00;96659.50;1018081;29;20038;-69
2022/12/28 00:15:25;;;;;;;9.05;5.28;;;;;;;0.12;100.00;96659.69;1021744;28;20023;-67
2022/12/28 00:15:56;;;;;;;10.25;4.88;;;;;;;0.05;100.00;96646.69;1021156;28;20027;-69
2022/12/28 00:16:30;;;;;;;8.70;4.75;;;;;;;0.11;100.00;96660.69;1021489;29;20056;-69
2022/12/28 00:17:00;;;;;;;13.78;5.82;;;;;;;0.11;100.00;96660.69;1013992;29;20064;-68
2022/12/28 00:17:31;;;;;;;10.43;5.05;;;;;;;0.09;100.00;96653.09;1014507;29;20108;-69
2022/12/28 00:18:01;;;;;;;11.55;5.13;;;;;;;0.10;100.00;96659.06;1018402;28;20034;-68
2022/12/28 00:18:35;;;;;;;9.52;5.22;;;;;;;0.09;100.00;96652.31;1022303;28;20125;-69
2022/12/28 00:19:10;;;;;;;12.06;5.34;;;;;;;0.08;100.00;96651.50;1017765;29;20039;-68
2022/12/28 00:19:41;;;;;;;8.74;5.36;;;;;;;0.07;100.00;96660.22;1018141;29;20038;-69
2022/12/28 00:20:12;;;;;;;10.05;5.65;;;;;;;0.04;100.00;96649.47;1016624;29;20365;-68
2022/12/28 00:20:42;;;;;;;10.32;5.50;;;;;;;0.06;100.00;96653.44;1020581;28;20043;-70
2022/12/28 00:21:13;;;;;;;8.65;5.57;;;;;;;0.08;100.00;96655.88;1022219;29;20087;-69
2022/12/28 00:21:43;;;;;;;9.73;5.25;;;;;;;0.03;100.00;96648.63;1017788;29;20778;-69
2022/12/28 00:22:14;;;;;;;8.77;5.22;;;;;;;0.07;100.00;96649.91;1017950;29;20020;-69
2022/12/28 00:22:44;;;;;;;9.00;5.00;;;;;;;0.06;100.00;96648.28;1018009;29;20497;-70
2022/12/28 00:23:15;;;;;;;7.97;5.25;;;;;;;0.08;100.00;96651.50;1016632;29;20035;-69
2022/12/28 00:23:50;;;;;;;7.68;5.38;;;;;;;0.08;100.00;96641.19;1020608;28;20027;-67
2022/12/28 00:24:21;;;;;;;8.88;5.28;;;;;;;0.04;100.00;96649.47;1010402;29;20032;-69
2022/12/28 00:24:52;;;;;;;8.50;4.74;;;;;;;0.08;100.00;96646.34;1003309;29;20766;-69
2022/12/28 00:25:22;;;;;;;11.07;5.20;;;;;;;0.07;100.00;96656.81;1006859;29;20065;-68
2022/12/28 00:25:53;;;;;;;10.55;5.18;;;;;;;0.07;100.00;96652.50;1009765;29;20454;-68
2022/12/28 00:26:23;;;;;;;10.20;5.53;;;;;;;0.08;100.00;96654.09;1018178;29;20141;-69
2022/12/28 00:26:55;;;;;;;8.73;4.95;;;;;;;0.03;100.00;96651.22;1014507;29;20016;-68
2022/12/28 00:27:26;;;;;;;13.04;5.20;;;;;;;0.09;100.00;96660.03;1015404;29;20121;-71
2022/12/28 00:27:56;;;;;;;9.23;5.00;;;;;;;0.08;100.00;96651.50;1018044;29;20039;-69
2022/12/28 00:28:27;;;;;;;8.63;5.00;;;;;;;0.09;100.00;96653.09;1018521;29;20034;-68
2022/12/28 00:28:57;;;;;;;9.40;5.38;;;;;;;0.12;100.00;96663.06;1018214;29;20540;-69
2022/12/28 00:29:28;;;;;;;8.90;5.43;;;;;;;0.14;100.00;96661.13;1021951;29;20118;-68
2022/12/28 00:29:58;;;;;;;9.18;5.00;;;;;;;0.12;100.00;96652.75;1018160;29;20118;-68
2022/12/28 00:30:29;;;;;;;8.18;4.95;;;;;;;0.16;100.00;96655.78;1018201;29;20912;-69
2022/12/28 00:30:59;;;;;;;8.52;5.10;;;;;;;0.16;100.00;96658.38;1021959;29;20051;-69
2022/12/28 00:31:30;;;;;;;9.35;5.03;;;;;;;0.21;100.00;96643.19;1018181;29;20103;-68
2022/12/28 00:32:00;;;;;;;9.02;4.97;;;;;;;0.22;100.00;96648.16;1022322;28;20023;-69
2022/12/28 00:32:31;;;;;;;10.38;5.07;;;;;;;0.22;100.00;96657.69;1025034;28;20027;-68
2022/12/28 00:33:01;;;;;;;8.95;5.70;;;;;;;0.24;100.00;96650.56;1022032;29;20023;-68
2022/12/28 00:33:32;;;;;;;10.70;5.38;;;;;;;0.20;100.00;96639.81;1018420;29;20035;-69
2022/12/28 00:34:02;;;;;;;8.65;5.03;;;;;;;0.26;100.00;96648.59;1010522;29;20021;-68
2022/12/28 00:34:33;;;;;;;9.77;5.15;;;;;;;0.27;100.00;96649.41;1010519;29;20085;-69
2022/12/28 00:35:04;;;;;;;7.68;4.60;;;;;;;0.27;100.00;96650.22;1017112;29;20379;-68
2022/12/28 00:35:34;;;;;;;8.66;5.22;;;;;;;0.26;100.00;96647.81;1014476;29;20111;-68
2022/12/28 00:36:05;;;;;;;8.32;4.78;;;;;;;0.22;100.00;96640.41;1014084;29;20551;-69
2022/12/28 00:36:36;;;;;;;6.95;4.28;;;;;;;0.27;100.00;96649.41;1010571;29;20023;-70
2022/12/28 00:37:06;;;;;;;7.80;4.93;;;;;;;0.26;100.00;96648.59;1010594;29;20646;-69
2022/12/28 00:37:37;;;;;;;7.75;4.85;;;;;;;0.27;100.00;96649.41;1011038;29;20028;-68
2022/12/28 00:38:07;;;;;;;7.70;4.40;;;;;;;0.25;100.00;96647.00;1018574;29;20034;-69
2022/12/28 00:38:38;;;;;;;8.20;4.82;;;;;;;0.21;100.00;96649.13;1022360;28;20087;-69
2022/12/28 00:39:08;;;;;;;9.52;4.85;;;;;;;0.18;100.00;96641.75;1026440;28;20078;-70
2022/12/28 00:39:40;;;;;;;7.40;4.70;;;;;;;0.17;100.00;96639.34;1017572;29;20760;-69
2022/12/28 00:40:10;;;;;;;8.48;4.92;;;;;;;0.17;100.00;96654.84;1013908;29;20080;-69
2022/12/28 00:40:41;;;;;;;7.13;4.47;;;;;;;0.15;100.00;96647.25;1014531;29;20036;-68
2022/12/28 00:41:12;;;;;;;6.88;4.44;;;;;;;0.16;100.00;96648.06;1021839;29;20034;-70
2022/12/28 00:41:42;;;;;;;7.22;4.38;;;;;;;0.13;100.00;96645.81;1022125;29;20031;-69
2022/12/28 00:42:13;;;;;;;6.63;4.70;;;;;;;0.16;100.00;96648.84;1014302;29;20035;-69
2022/12/28 00:42:43;;;;;;;8.23;4.82;;;;;;;0.20;100.00;96651.88;1014333;29;20099;-70
2022/12/28 00:43:14;;;;;;;7.65;4.28;;;;;;;0.18;100.00;96649.47;1018347;29;20147;-68
2022/12/28 00:43:45;;;;;;;7.65;5.15;;;;;;;0.14;100.00;96648.25;1018153;29;20042;-69
2022/12/28 00:44:15;;;;;;;7.75;4.55;;;;;;;0.14;100.00;96650.81;1018356;29;20046;-68
2022/12/28 00:44:46;;;;;;;8.80;4.63;;;;;;;0.13;100.00;96649.19;1021786;29;20035;-70
2022/12/28 00:45:16;;;;;;;8.30;4.32;;;;;;;0.11;100.00;96643.41;1018111;29;20474;-70
2022/12/28 00:45:47;;;;;;;8.25;4.80;;;;;;;0.15;100.00;96639.50;1021458;29;20073;-68
2022/12/28 00:46:17;;;;;;;9.57;4.80;;;;;;;0.17;100.00;96644.50;1018292;29;20027;-68
2022/12/28 00:46:48;;;;;;;8.15;5.18;;;;;;;0.15;100.00;96647.25;1018174;29;20091;-68
2022/12/28 00:47:18;;;;;;;7.53;4.55;;;;;;;0.13;100.00;96646.59;1022329;29;20035;-69
2022/12/28 00:47:49;;;;;;;7.45;4.70;;;;;;;0.14;100.00;96650.81;1018208;29;20050;-69
2022/12/28 00:48:19;;;;;;;8.70;4.75;;;;;;;0.15;100.00;96652.41;1018287;29;20379;-68
2022/12/28 00:48:50;;;;;;;7.28;4.65;;;;;;;0.18;100.00;96641.75;1014685;29;20044;-68
2022/12/28 00:49:20;;;;;;;8.93;4.90;;;;;;;0.18;100.00;96651.28;1018221;29;20059;-68
2022/12/28 00:49:51;;;;;;;8.23;5.30;;;;;;;0.16;100.00;96648.06;1018244;29;20111;-68
2022/12/28 00:50:21;;;;;;;6.72;4.50;;;;;;;0.16;100.00;96648.84;1016605;29;20553;-69
2022/12/28 00:50:52;;;;;;;6.60;4.40;;;;;;;0.17;100.00;96645.31;1014386;29;20040;-68
2022/12/28 00:51:22;;;;;;;7.95;4.65;;;;;;;0.15;100.00;96641.28;1014531;29;20115;-69
2022/12/28 00:51:52;;;;;;;8.25;4.63;;;;;;;0.17;100.00;96647.88;1014263;29;20074;-69
2022/12/28 00:52:23;;;;;;;9.98;4.68;;;;;;;0.13;100.00;96649.19;1022179;29;20091;-69
2022/12/28 00:52:53;;;;;;;9.27;4.57;;;;;;;0.13;100.00;96649.19;1022332;29;20039;-70
2022/12/28 00:53:24;;;;;;;10.13;4.68;;;;;;;0.05;100.00;96636.38;1018169;29;20031;-69
2022/12/28 00:53:54;;;;;;;9.80;5.22;;;;;;;0.10;100.00;96644.41;1014273;29;20032;-69
2022/12/28 00:54:25;;;;;;;7.07;5.13;;;;;;;0.14;100.00;96647.44;1014439;29;20694;-69
2022/12/28 00:54:55;;;;;;;8.82;5.13;;;;;;;0.12;100.00;96639.84;1018227;29;20043;-68
2022/12/28 00:55:26;;;;;;;9.60;5.13;;;;;;;0.09;100.00;96645.34;1022143;28;20042;-69
2022/12/28 00:56:17;;;;;;;12.13;5.45;;;;;;;0.10;100.00;96648.75;1028863;28;20026;-69
2022/12/28 00:56:48;;;;;;;7.22;4.34;;;;;;;0.10;100.00;96653.91;1026399;28;20026;-68
2022/12/28 00:57:18;;;;;;;8.23;4.57;;;;;;;0.07;100.00;96641.34;1014743;29;20051;-69
2022/12/28 00:57:49;;;;;;;9.52;5.22;;;;;;;0.11;100.00;96655.53;1015218;29;20111;-70
2022/12/28 00:58:19;;;;;;;9.07;4.93;;;;;;;0.14;100.00;96655.19;1015395;29;20031;-69
2022/12/28 00:58:53;;;;;;;10.50;5.38;;;;;;;0.10;100.00;96647.00;1018915;29;20811;-70
2022/12/28 00:59:24;;;;;;;9.02;4.64;;;;;;;0.18;100.00;96659.81;1023126;29;20026;-68
2022/12/28 00:59:54;;;;;;;12.73;4.68;;;;;;;0.13;100.00;96638.88;1022865;29;20516;-68
2022/12/28 01:00:25;;;;;;;9.30;4.63;;;;;;;0.17;100.00;96660.00;1014860;29;20036;-70
2022/12/28 01:00:56;;;;;;;12.00;5.32;;;;;;;0.24;100.00;96666.06;1019819;29;20015;-69
2022/12/28 01:01:26;;;;;;;11.52;4.90;;;;;;;0.25;100.00;96656.53;1022159;29;20028;-68
2022/12/28 01:01:57;;;;;;;8.90;4.65;;;;;;;0.28;100.00;96656.19;1018894;29;20016;-70
2022/12/28 01:02:27;;;;;;;7.68;4.93;;;;;;;0.31;100.00;96655.84;1019184;29;20046;-68
2022/12/28 01:02:58;;;;;;;9.82;5.05;;;;;;;0.32;100.00;96657.44;1018642;29;20079;-69
2022/12/28 01:03:28;;;;;;;6.85;4.72;;;;;;;0.31;100.00;96661.00;1016053;29;20166;-68
2022/12/28 01:03:59;;;;;;;10.32;5.10;;;;;;;0.35;100.00;96657.09;1011040;29;20024;-68
2022/12/28 01:04:29;;;;;;;8.05;4.95;;;;;;;0.34;100.00;96661.44;1007609;29;20033;-69
2022/12/28 01:04:59;;;;;;;9.20;4.80;;;;;;;0.35;100.00;96664.84;1014908;29;20092;-69
2022/12/28 01:05:30;;;;;;;7.45;5.10;;;;;;;0.35;100.00;96659.66;1014465;29;20554;-67
2022/12/28 01:06:05;;;;;;;8.23;5.10;;;;;;;0.28;100.00;96641.50;1018693;29;20020;-68
2022/12/28 01:06:35;;;;;;;7.82;4.52;;;;;;;0.37;100.00;96658.53;1023243;29;20023;-69
2022/12/28 01:07:06;;;;;;;7.43;4.82;;;;;;;0.39;100.00;96655.75;1023550;28;20087;-69
2022/12/28 01:07:36;;;;;;;7.82;5.18;;;;;;;0.39;100.00;96656.56;1027171;28;20026;-68
2022/12/28 01:08:07;;;;;;;7.22;4.65;;;;;;;0.39;100.00;96655.75;1026975;28;20578;-68
2022/12/28 01:08:37;;;;;;;7.03;4.68;;;;;;;0.39;100.00;96655.75;1026985;28;20062;-70
2022/12/28 01:09:08;;;;;;;9.05;5.13;;;;;;;0.39;100.00;96655.75;1022987;29;20027;-68
2022/12/28 01:09:38;;;;;;;7.82;4.20;;;;;;;0.38;100.00;96654.16;1023026;29;20154;-68
2022/12/28 01:10:09;;;;;;;8.48;4.40;;;;;;;0.34;100.00;96640.81;1022781;29;20023;-69
2022/12/28 01:10:39;;;;;;;8.30;4.43;;;;;;;0.33;100.00;96646.94;1023108;28;20035;-69
2022/12/28 01:11:21;;;;;;;9.20;4.88;;;;;;;0.38;100.00;96651.56;1022984;29;20378;-69
2022/12/28 01:11:51;;;;;;;10.58;4.50;;;;;;;0.37;100.00;96650.78;1019219;29;20095;-69
2022/12/28 01:12:22;;;;;;;6.43;3.97;;;;;;;0.36;100.00;96653.53;1017229;29;20028;-68
2022/12/28 01:12:52;;;;;;;7.78;4.47;;;;;;;0.35;100.00;96649.34;1018092;29;20028;-68
2022/12/28 01:13:23;;;;;;;7.18;4.75;;;;;;;0.30;100.00;96644.69;1024566;28;20027;-68
2022/12/28 01:13:55;;;;;;;7.47;4.80;;;;;;;0.31;100.00;96651.47;1022877;28;20023;-69
2022/12/28 01:14:25;;;;;;;8.98;4.98;;;;;;;0.34;100.00;96655.50;1019152;29;20022;-70
2022/12/28 01:14:56;;;;;;;9.10;4.75;;;;;;;0.34;100.00;96650.34;1018857;29;20028;-68
2022/12/28 01:15:26;;;;;;;8.73;4.80;;;;;;;0.33;100.00;96653.88;1019200;29;20027;-70
2022/12/28 01:15:56;;;;;;;7.25;4.03;;;;;;;0.38;100.00;96654.16;1022664;28;20531;-68
2022/12/28 01:16:31;;;;;;;10.73;3.92;;;;;;;0.32;100.00;96641.94;1022891;29;20031;-68
2022/12/28 01:17:02;;;;;;;6.06;4.46;;;;;;;0.39;100.00;96658.34;1022732;29;20020;-69
2022/12/28 01:17:32;;;;;;;9.82;4.65;;;;;;;0.40;100.00;96657.34;1023017;29;20481;-68
2022/12/28 01:18:03;;;;;;;5.85;4.07;;;;;;;0.39;100.00;96650.59;1019028;29;20044;-68
2022/12/28 01:18:33;;;;;;;9.73;4.57;;;;;;;0.39;100.00;96646.22;1015287;29;20573;-69
2022/12/28 01:19:05;;;;;;;6.85;4.25;;;;;;;0.41;100.00;96652.03;1018835;29;20557;-68
2022/12/28 01:19:35;;;;;;;8.00;4.88;;;;;;;0.37;100.00;96643.03;1019058;29;20124;-68
2022/12/28 01:20:06;;;;;;;8.82;4.30;;;;;;;0.37;100.00;96634.47;1021587;29;20031;-68
2022/12/28 01:20:38;;;;;;;7.90;4.06;;;;;;;0.43;100.00;96649.25;1017876;29;20523;-68
2022/12/28 01:21:10;;;;;;;7.34;4.30;;;;;;;0.42;100.00;96639.91;1018937;29;20033;-68
2022/12/28 01:21:40;;;;;;;6.60;4.10;;;;;;;0.43;100.00;96642.31;1019289;29;20055;-68
2022/12/28 01:22:11;;;;;;;7.53;4.15;;;;;;;0.42;100.00;96638.13;1019373;29;20446;-68
2022/12/28 01:22:41;;;;;;;8.15;4.47;;;;;;;0.42;100.00;96637.34;1019196;29;20024;-70
2022/12/28 01:23:12;;;;;;;9.55;4.25;;;;;;;0.41;100.00;96640.91;1022959;29;20023;-68
2022/12/28 01:23:43;;;;;;;10.18;4.95;;;;;;;0.41;100.00;96639.13;1018862;29;20024;-69
2022/12/28 01:24:13;;;;;;;7.80;4.70;;;;;;;0.37;100.00;96634.47;1019300;29;20027;-68
2022/12/28 01:24:44;;;;;;;8.38;4.00;;;;;;;0.35;100.00;96626.13;1018855;29;20092;-69
2022/12/28 01:25:15;;;;;;;5.72;3.88;;;;;;;0.40;100.00;96636.69;1014958;29;20036;-68
2022/12/28 01:25:45;;;;;;;8.07;4.75;;;;;;;0.38;100.00;96636.88;1014498;29;20112;-70
2022/12/28 01:26:15;;;;;;;6.90;4.20;;;;;;;0.36;100.00;96640.63;1018800;29;20028;-71
2022/12/28 01:26:46;;;;;;;6.78;4.22;;;;;;;0.36;100.00;96643.19;1015304;29;20028;-69
2022/12/28 01:27:16;;;;;;;7.80;4.55;;;;;;;0.35;100.00;96637.25;1018952;29;20024;-68
2022/12/28 01:27:47;;;;;;;9.80;4.70;;;;;;;0.34;100.00;96624.53;1026867;28;20041;-69
2022/12/28 01:28:17;;;;;;;6.95;4.20;;;;;;;0.34;100.00;96627.09;1027190;28;20027;-70
2022/12/28 01:28:48;;;;;;;7.05;4.32;;;;;;;0.32;100.00;96629.03;1022811;29;20042;-70
2022/12/28 01:29:18;;;;;;;7.32;4.30;;;;;;;0.30;100.00;96629.19;1022823;29;20023;-68
2022/12/28 01:29:49;;;;;;;10.25;4.60;;;;;;;0.24;100.00;96619.59;1015272;29;20125;-68
2022/12/28 01:30:19;;;;;;;6.10;4.05;;;;;;;0.24;100.00;96629.94;1019118;29;20489;-68
2022/12/28 01:30:50;;;;;;;6.15;3.90;;;;;;;0.23;100.00;96626.56;1015007;29;20079;-70
2022/12/28 01:31:21;;;;;;;5.85;4.10;;;;;;;0.18;100.00;96626.25;1014997;29;20075;-68
2022/12/28 01:31:51;;;;;;;8.00;4.05;;;;;;;0.18;100.00;96623.69;1007509;29;20729;-68
2022/12/28 01:32:22;;;;;;;6.88;4.25;;;;;;;0.03;100.00;96602.19;1011448;29;20033;-69
2022/12/28 01:32:52;;;;;;;6.85;4.03;;;;;;;0.12;100.00;96611.47;1010909;29;20037;-69
2022/12/28 01:33:23;;;;;;;7.93;4.13;;;;;;;0.12;100.00;96621.78;1007443;29;20059;-68
2022/12/28 01:33:54;;;;;;;6.20;4.28;;;;;;;0.10;100.00;96618.59;1015199;29;20072;-69
2022/12/28 01:34:24;;;;;;;7.26;4.30;;;;;;;0.08;100.00;96620.53;1018954;29;20019;-70
2022/12/28 01:34:54;;;;;;;7.78;4.47;;;;;;;0.08;100.00;96620.53;1018980;29;20578;-69
2022/12/28 01:35:25;;;;;;;6.45;4.03;;;;;;;0.04;100.00;96615.91;1018901;29;20052;-68
2022/12/28 01:35:55;;;;;;;9.27;4.30;;;;;;;0.05;100.00;96626.06;1014341;29;20024;-68
2022/12/28 01:36:28;;;;;;;6.38;4.15;;;;;;;0.02;100.00;96625.59;1018934;29;20478;-70
2022/12/28 01:36:58;;;;;;;10.24;4.16;;;;;;;-0.06;100.00;96619.53;1011228;29;20405;-69
2022/12/28 01:37:29;;;;;;;7.68;4.07;;;;;;;0.01;100.00;96624.00;1018810;29;20032;-69
2022/12/28 01:37:59;;;;;;;6.75;4.10;;;;;;;-0.01;100.00;96621.59;1022966;29;20024;-68
2022/12/28 01:38:30;;;;;;;10.07;4.70;;;;;;;-0.01;100.00;96621.59;1022859;29;20118;-69
2022/12/28 01:39:03;;;;;;;6.68;4.25;;;;;;;-0.03;100.00;96620.97;1022895;29;20039;-69
2022/12/28 01:39:33;;;;;;;6.78;4.46;;;;;;;-0.04;100.00;96622.72;1022820;29;20023;-68
2022/12/28 01:40:04;;;;;;;6.75;3.80;;;;;;;-0.04;100.00;96627.09;1022610;29;20035;-68
2022/12/28 01:40:35;;;;;;;7.50;4.10;;;;;;;-0.05;100.00;96621.13;1022898;29;20041;-68
2022/12/28 01:41:06;;;;;;;8.13;4.07;;;;;;;-0.05;100.00;96622.91;1022720;29;20042;-69
2022/12/28 01:41:38;;;;;;;7.54;4.32;;;;;;;-0.09;100.00;96619.09;1022774;29;20031;-68
2022/12/28 01:42:15;;;;;;;9.94;4.50;;;;;;;-0.16;100.00;96613.03;1019111;29;20142;-69
2022/12/28 01:42:46;;;;;;;7.66;3.96;;;;;;;-0.14;100.00;96613.63;1015052;29;20772;-69
2022/12/28 01:43:16;;;;;;;11.98;4.88;;;;;;;-0.15;100.00;96607.66;1016369;29;20043;-69
2022/12/28 01:43:52;;;;;;;7.40;4.43;;;;;;;-0.10;100.00;96618.28;1022356;29;20461;-71
2022/12/28 01:44:22;;;;;;;6.90;4.18;;;;;;;-0.13;100.00;96610.91;1022513;29;20032;-71
2022/12/28 01:44:53;;;;;;;9.43;5.00;;;;;;;-0.14;100.00;96621.38;1022862;29;20039;-69
2022/12/28 01:45:23;;;;;;;5.95;4.13;;;;;;;-0.13;100.00;96623.78;1019349;29;20486;-69
2022/12/28 01:45:54;;;;;;;8.65;5.13;;;;;;;-0.14;100.00;96611.03;1022504;29;20184;-68
2022/12/28 01:46:24;;;;;;;7.65;4.47;;;;;;;-0.12;100.00;96614.28;1015145;29;20542;-71
2022/12/28 01:46:56;;;;;;;7.35;3.90;;;;;;;-0.12;100.00;96609.09;1014909;29;20031;-70
2022/12/28 01:47:29;;;;;;;8.16;4.40;;;;;;;-0.11;100.00;96616.66;1011244;29;20036;-70
2022/12/28 01:47:59;;;;;;;5.24;3.84;;;;;;;-0.07;100.00;96611.94;1014821;29;20047;-69
2022/12/28 01:48:30;;;;;;;9.35;4.18;;;;;;;-0.05;100.00;96610.00;1015186;29;20070;-69
2022/12/28 01:49:02;;;;;;;5.75;4.10;;;;;;;-0.10;100.00;96605.38;1020951;28;20077;-68
2022/12/28 01:49:37;;;;;;;6.62;4.24;;;;;;;-0.03;100.00;96613.22;1019321;29;20042;-69
2022/12/28 01:50:09;;;;;;;6.76;4.30;;;;;;;-0.07;100.00;96601.63;1017780;29;20024;-70
2022/12/28 01:50:39;;;;;;;5.86;3.70;;;;;;;-0.02;100.00;96609.66;1017649;29;20513;-71
2022/12/28 01:51:10;;;;;;;8.25;4.10;;;;;;;0.06;100.00;96613.94;1018115;29;20032;-69
2022/12/28 01:52:24;;;;;;;6.05;4.15;;;;;;;0.06;100.00;96612.16;1016557;29;20417;-70
2022/12/28 01:52:57;;;;;;;9.24;3.90;;;;;;;0.07;100.00;96613.78;1009650;29;20039;-70
2022/12/28 01:53:27;;;;;;;6.44;4.26;;;;;;;0.06;100.00;96609.59;1007945;29;20062;-68
2022/12/28 01:53:58;;;;;;;5.88;3.83;;;;;;;0.07;100.00;96623.28;1006894;29;20068;-70
2022/12/28 01:54:32;;;;;;;7.13;3.90;;;;;;;0.06;100.00;96614.75;1003252;29;20110;-69
2022/12/28 01:55:05;;;;;;;9.34;3.90;;;;;;;0.05;100.00;96615.72;1003091;29;20321;-69
2022/12/28 01:55:37;;;;;;;6.52;3.84;;;;;;;0.02;100.00;96613.50;1014761;29;20072;-68
2022/12/28 01:56:08;;;;;;;5.84;3.76;;;;;;;-0.04;100.00;96601.28;1022495;29;20463;-68
2022/12/28 01:56:38;;;;;;;4.97;3.42;;;;;;;0.02;100.00;96608.34;1018905;29;20027;-68
2022/12/28 01:57:09;;;;;;;8.27;3.88;;;;;;;0.03;100.00;96607.34;1014948;29;20032;-69
2022/12/28 01:58:03;;;;;;;6.60;4.32;;;;;;;0.05;100.00;96608.00;1018886;29;20111;-68
2022/12/28 01:58:34;;;;;;;7.72;4.00;;;;;;;0.02;100.00;96600.59;1019057;29;20078;-68
2022/12/28 01:59:04;;;;;;;6.53;3.75;;;;;;;0.03;100.00;96589.28;1018497;29;20028;-68
2022/12/28 01:59:37;;;;;;;6.82;4.40;;;;;;;0.07;100.00;96606.06;1011471;29;20028;-69
2022/12/28 02:00:10;;;;;;;8.28;4.06;;;;;;;0.05;100.00;96599.47;1014646;29;20104;-69
2022/12/28 02:00:40;;;;;;;5.98;3.68;;;;;;;0.08;100.00;96602.47;1014251;29;20103;-68
2022/12/28 02:01:11;;;;;;;4.90;3.47;;;;;;;0.09;100.00;96601.50;1016077;29;20557;-70
2022/12/28 02:01:41;;;;;;;5.97;3.80;;;;;;;0.07;100.00;96597.47;1018773;29;20027;-69
2022/12/28 02:02:12;;;;;;;7.78;4.28;;;;;;;0.08;100.00;96605.06;1019013;28;20103;-69
2022/12/28 02:02:47;;;;;;;6.93;3.80;;;;;;;0.07;100.00;96602.66;1014940;29;20019;-68
2022/12/28 02:03:19;;;;;;;5.24;3.20;;;;;;;0.09;100.00;96598.91;1014895;29;20020;-69
2022/12/28 02:03:49;;;;;;;9.20;3.78;;;;;;;0.06;100.00;96596.69;1022670;29;20023;-70
2022/12/28 02:04:20;;;;;;;5.95;3.50;;;;;;;0.09;100.00;96603.28;1018482;29;20628;-69
2022/12/28 02:04:50;;;;;;;5.05;3.45;;;;;;;0.09;100.00;96601.50;1014925;29;20024;-68
2022/12/28 02:05:22;;;;;;;6.55;3.70;;;;;;;0.04;100.00;96596.06;1014882;29;20017;-68
2022/12/28 02:05:55;;;;;;;5.90;3.90;;;;;;;0.08;100.00;96602.47;1018172;29;20108;-69
2022/12/28 02:06:25;;;;;;;7.06;4.38;;;;;;;0.11;100.00;96598.75;1010880;29;20613;-69
2022/12/28 02:06:56;;;;;;;7.18;4.00;;;;;;;0.09;100.00;96593.75;1011092;29;20025;-70
2022/12/28 02:07:42;;;;;;;6.10;3.42;;;;;;;0.13;100.00;96597.59;1018684;29;20390;-68
2022/12/28 02:08:24;;;;;;;5.88;3.38;;;;;;;0.14;100.00;96601.78;1014843;29;20024;-68
2022/12/28 02:09:12;;;;;;;5.02;3.42;;;;;;;0.16;100.00;96594.66;1014048;29;20151;-68
2022/12/28 02:09:42;;;;;;;5.60;3.60;;;;;;;0.15;100.00;96594.84;1018727;29;20036;-68
2022/12/28 02:10:14;;;;;;;6.20;3.53;;;;;;;0.01;100.00;96573.22;1014762;29;20046;-67
2022/12/28 02:10:44;;;;;;;5.46;3.64;;;;;;;0.18;100.00;96595.28;1014954;29;20020;-67
2022/12/28 02:11:15;;;;;;;6.05;3.85;;;;;;;0.16;100.00;96586.91;1018878;29;20026;-68
2022/12/28 02:11:46;;;;;;;4.65;3.45;;;;;;;0.23;100.00;96593.00;1019055;29;20023;-69
2022/12/28 02:12:17;;;;;;;5.54;3.64;;;;;;;0.25;100.00;96594.59;1007108;29;20656;-68
2022/12/28 02:12:47;;;;;;;6.65;3.63;;;;;;;0.24;100.00;96596.38;1010861;29;20036;-69
2022/12/28 02:13:18;;;;;;;7.18;3.28;;;;;;;0.28;100.00;96596.81;1011119;29;20519;-69
2022/12/28 02:13:49;;;;;;;5.05;3.10;;;;;;;0.23;100.00;96580.09;1015120;29;20020;-68
2022/12/28 02:14:20;;;;;;;6.70;3.36;;;;;;;0.23;100.00;96587.84;1010987;29;20725;-68
2022/12/28 02:14:53;;;;;;;7.80;3.88;;;;;;;0.27;100.00;96597.78;1007275;29;20025;-68
2022/12/28 02:15:23;;;;;;;5.30;3.72;;;;;;;0.26;100.00;96594.41;1011435;29;20027;-69
2022/12/28 02:15:54;;;;;;;5.03;3.58;;;;;;;0.30;100.00;96592.28;1015301;29;20546;-69
2022/12/28 02:16:24;;;;;;;5.47;3.63;;;;;;;0.29;100.00;96595.84;1022507;29;20481;-69
2022/12/28 02:16:55;;;;;;;9.38;4.32;;;;;;;0.28;100.00;96594.25;1022701;28;20076;-68
2022/12/28 02:17:25;;;;;;;6.40;3.75;;;;;;;0.29;100.00;96582.94;1022439;29;20023;-70
2022/12/28 02:17:56;;;;;;;5.30;3.28;;;;;;;0.26;100.00;96588.44;1022762;29;20688;-70
2022/12/28 02:18:26;;;;;;;5.38;3.38;;;;;;;0.26;100.00;96580.69;1018874;29;20024;-68
2022/12/28 02:18:57;;;;;;;7.03;3.90;;;;;;;0.28;100.00;96591.66;1014854;29;20021;-70
2022/12/28 02:19:53;;;;;;;7.38;3.70;;;;;;;0.27;100.00;96580.53;1014812;29;20689;-68
2022/12/28 02:20:26;;;;;;;9.84;3.30;;;;;;;0.27;100.00;96583.13;1013128;29;20032;-69
2022/12/28 02:21:08;;;;;;;7.98;3.44;;;;;;;0.27;100.00;96584.88;1016927;29;20024;-68
2022/12/28 02:22:13;;;;;;;5.74;3.60;;;;;;;0.26;100.00;96581.50;1015148;29;20531;-68
2022/12/28 02:23:13;;;;;;;5.36;3.46;;;;;;;0.19;100.00;96568.50;1020241;29;20051;-69
2022/12/28 02:24:14;;;;;;;11.72;3.64;;;;;;;0.21;100.00;96584.63;1019139;29;20510;-68
2022/12/28 02:24:48;;;;;;;;;;;;;;;0.19;100.00;96589.16;1019561;29;20038;-68
2022/12/28 02:25:37;;;;;;;7.60;3.90;;;;;;;0.16;100.00;96584.34;1018984;29;20008;-68
2022/12/28 02:26:37;;;;;;;6.32;3.74;;;;;;;0.11;100.00;96578.91;1018851;29;20105;-69
2022/12/28 02:27:22;;;;;;;6.72;4.14;;;;;;;0.14;100.00;96581.16;1021638;29;20509;-68
2022/12/28 02:28:30;;;;;;;8.16;3.98;;;;;;;0.14;100.00;96581.16;1024984;28;20110;-68
2022/12/28 02:29:22;;;;;;;6.44;3.36;;;;;;;0.13;100.00;96581.31;1027539;28;20027;-69
2022/12/28 02:30:09;;;;;;;4.86;3.52;;;;;;;0.12;100.00;96577.94;1027461;28;20023;-68
2022/12/28 02:30:43;;;;;;;5.78;3.52;;;;;;;0.12;100.00;96580.50;1019249;29;20122;-69
2022/12/28 02:31:33;;;;;;;8.52;4.00;;;;;;;0.03;100.00;96565.28;1015366;29;20028;-69
2022/12/28 02:32:25;;;;;;;13.40;3.95;;;;;;;0.11;100.00;96578.13;1019919;29;20529;-69